Terminal Aerodrome Forecast
Issued by NWS

Home | Current Version | Previous Version | Text Only | Print | Product List | Glossary On
Versions: 1 2 3 4 5 6 7 8 9 10 11 12 13 14 15
019
FTAK31 PAJN 080601 AAA
TAFAKT
TAF AMD
PAKT 080601Z 0806/0906 VRB03KT P6SM -RA FEW040 OVC060
      TEMPO 0806/0810 4SM RA BR BKN010 OVC035
     FM081000 14015G25KT 4SM -RA BR BKN020 OVC030
     FM081300 15020G30KT 3SM RA BR SCT007 OVC015 WS020/21035KT
     FM081700 14025G35KT 2SM -RA BR BKN007 OVC015 WS020/17050KT
     FM082100 14015G25KT 3SM -RA BR SCT007 OVC015
     FM090300 15010G20KT 4SM -RA BR OVC015
      AMD LTD TO CLD VIS AND WIND 0806/0815=

USA.gov is the U.S. government's official web portal to all federal, state and local government web resources and services.